createdAt,value
2023-10-09T00:01:25.474Z,76.68
2023-10-09T00:03:30.110Z,78.28
2023-10-09T00:05:47.983Z,79.07
2023-10-09T00:07:50.987Z,79.31
2023-10-09T00:09:56.812Z,79.15
2023-10-09T00:12:01.852Z,79.68
2023-10-09T00:14:07.181Z,79.98
2023-10-09T00:16:15.724Z,79.25
2023-10-09T00:18:23.521Z,79.19
2023-10-09T00:20:40.030Z,79.83
2023-10-09T00:22:44.881Z,79.79
2023-10-09T00:24:48.386Z,79.85
2023-10-09T00:26:53.041Z,80.28
2023-10-09T00:28:55.668Z,80.26
2023-10-09T00:30:58.189Z,79.85
2023-10-09T00:33:05.470Z,79.45
2023-10-09T00:35:27.020Z,79.71
2023-10-09T00:37:35.802Z,79.67
2023-10-09T00:39:38.218Z,79.52
2023-10-09T00:41:43.616Z,78.99
2023-10-09T00:43:46.545Z,79.27
2023-10-09T00:45:52.419Z,78.55
2023-10-09T00:48:00.424Z,78.43
2023-10-09T00:50:22.444Z,78.93
2023-10-09T00:52:41.186Z,78.95
2023-10-09T00:54:45.981Z,79.56
2023-10-09T00:56:58.879Z,79.48
2023-10-09T00:59:23.333Z,80.20
2023-10-09T01:01:29.801Z,80.40
2023-10-09T01:03:35.320Z,80.57
2023-10-09T01:05:40.744Z,79.33
2023-10-09T01:07:45.969Z,80.09
2023-10-09T01:09:52.180Z,79.85
2023-10-09T01:12:01.638Z,79.80
2023-10-09T01:14:10.313Z,79.68
2023-10-09T01:16:17.379Z,79.96
2023-10-09T01:18:21.591Z,79.96
2023-10-09T01:20:31.885Z,80.04
2023-10-09T01:22:34.929Z,79.95
2023-10-09T01:24:40.240Z,80.14
2023-10-09T01:26:48.153Z,79.53
2023-10-09T01:28:51.086Z,79.99
2023-10-09T01:30:53.743Z,80.15
2023-10-09T01:32:59.616Z,80.25
2023-10-09T01:35:02.559Z,80.18
2023-10-09T01:37:30.356Z,80.32
2023-10-09T01:39:33.358Z,79.77
2023-10-09T01:41:36.504Z,80.23
2023-10-09T01:43:40.390Z,80.06
2023-10-09T01:45:48.296Z,80.37
2023-10-09T01:47:57.484Z,80.02
2023-10-09T01:50:00.258Z,80.52
2023-10-09T01:52:10.137Z,80.19
2023-10-09T01:54:18.635Z,80.47
2023-10-09T01:56:21.312Z,80.25
2023-10-09T01:58:23.842Z,80.28
2023-10-09T02:00:31.031Z,80.38
2023-10-09T02:02:36.316Z,80.27
2023-10-09T02:04:42.115Z,80.49
2023-10-09T02:06:44.568Z,80.74
2023-10-09T02:08:53.241Z,80.95
2023-10-09T02:10:58.212Z,80.59
2023-10-09T02:13:08.537Z,80.44
2023-10-09T02:15:17.272Z,80.82
2023-10-09T02:17:20.567Z,80.62
2023-10-09T02:19:32.593Z,80.23
2023-10-09T02:21:35.832Z,80.22
2023-10-09T02:23:51.639Z,79.79
2023-10-09T02:26:08.083Z,80.16
2023-10-09T02:28:19.436Z,80.38
2023-10-09T02:30:31.358Z,80.43
2023-10-09T02:32:35.210Z,80.40
2023-10-09T02:34:39.957Z,81.36
2023-10-09T02:36:44.202Z,80.45
2023-10-09T02:38:50.186Z,80.75
2023-10-09T02:41:05.207Z,80.64
2023-10-09T02:43:19.576Z,81.08
2023-10-09T02:45:30.629Z,81.36
2023-10-09T02:47:39.828Z,81.04
2023-10-09T02:49:42.272Z,80.94
2023-10-09T02:51:50.442Z,80.91
2023-10-09T02:54:20.639Z,80.61
2023-10-09T02:56:39.320Z,81.52
2023-10-09T02:58:42.308Z,81.02
2023-10-09T03:00:46.475Z,81.36
2023-10-09T03:02:51.764Z,81.97
2023-10-09T03:04:56.899Z,81.80
2023-10-09T03:07:00.875Z,81.42
2023-10-09T03:09:17.860Z,81.47
2023-10-09T03:11:20.813Z,81.39
2023-10-09T03:13:23.553Z,81.44
2023-10-09T03:15:26.177Z,81.62
2023-10-09T03:17:29.238Z,81.92
2023-10-09T03:19:39.643Z,81.45
2023-10-09T03:21:43.920Z,81.62
2023-10-09T03:23:53.636Z,82.11
2023-10-09T03:26:04.029Z,81.99
2023-10-09T03:28:14.222Z,81.70
2023-10-09T03:30:25.156Z,81.55
2023-10-09T03:32:28.549Z,81.23
2023-10-09T03:34:32.921Z,82.01
2023-10-09T03:36:40.422Z,81.74
2023-10-09T03:38:44.234Z,82.12
2023-10-09T03:40:50.619Z,82.12
2023-10-09T03:42:54.428Z,81.89
2023-10-09T03:44:59.291Z,81.88
2023-10-09T03:47:03.894Z,81.44
2023-10-09T03:49:12.280Z,81.37
2023-10-09T03:51:17.168Z,81.81
2023-10-09T03:53:20.814Z,81.89
2023-10-09T03:55:29.429Z,81.12
2023-10-09T03:57:32.566Z,81.88
2023-10-09T03:59:35.822Z,81.36
2023-10-09T04:01:42.444Z,81.35
2023-10-09T04:03:46.562Z,81.48
2023-10-09T04:05:53.264Z,81.51
2023-10-09T04:07:59.674Z,81.46
2023-10-09T04:10:25.038Z,80.73
2023-10-09T04:12:28.081Z,81.25
2023-10-09T04:14:34.659Z,80.41
2023-10-09T04:16:52.854Z,80.16
2023-10-09T04:18:58.137Z,80.34
2023-10-09T04:21:19.830Z,80.06
2023-10-09T04:23:36.662Z,80.50
2023-10-09T04:25:47.209Z,79.69
2023-10-09T04:27:54.925Z,79.48
2023-10-09T04:29:58.319Z,79.08
2023-10-09T04:32:02.155Z,79.47
2023-10-09T04:34:30.358Z,79.85
2023-10-09T04:36:48.269Z,79.01
2023-10-09T04:39:17.576Z,79.23
2023-10-09T04:41:29.270Z,78.93
2023-10-09T04:43:34.882Z,78.72
2023-10-09T04:45:56.857Z,78.34
2023-10-09T04:48:00.020Z,79.23
2023-10-09T04:50:04.020Z,79.08
2023-10-09T04:52:10.745Z,78.88
2023-10-09T04:54:17.805Z,79.31
2023-10-09T04:56:25.706Z,79.56
2023-10-09T04:58:28.920Z,79.02
2023-10-09T05:00:32.081Z,79.13
2023-10-09T05:02:38.017Z,79.15
2023-10-09T05:04:41.390Z,78.91
2023-10-09T05:06:51.532Z,79.51
2023-10-09T05:08:56.173Z,79.01
2023-10-09T05:11:02.255Z,78.80
2023-10-09T05:13:10.432Z,78.34
2023-10-09T05:15:15.211Z,78.60
2023-10-09T05:17:17.872Z,78.61
2023-10-09T05:19:43.723Z,77.95
2023-10-09T05:21:47.084Z,78.62
2023-10-09T05:28:27.393Z,77.94
2023-10-09T05:44:20.781Z,79.01
2023-10-09T05:55:21.294Z,79.51
2023-10-09T06:06:04.749Z,79.82
2023-10-09T06:12:35.235Z,80.34
2023-10-09T06:19:09.563Z,79.49
2023-10-09T06:22:28.393Z,79.38
2023-10-09T06:24:43.984Z,79.38
2023-10-09T06:27:00.444Z,80.34
2023-10-09T06:29:32.273Z,79.82
2023-10-09T06:31:56.677Z,80.54
2023-10-09T06:34:17.513Z,80.87
2023-10-09T06:36:20.418Z,81.20
2023-10-09T06:38:25.147Z,81.66
2023-10-09T06:40:40.502Z,81.52
2023-10-09T06:42:43.441Z,81.40
2023-10-09T06:44:55.410Z,81.60
2023-10-09T06:47:09.520Z,81.73
2023-10-09T06:49:30.566Z,81.86
2023-10-09T06:51:34.235Z,82.83
2023-10-09T06:54:13.092Z,82.72
2023-10-09T06:56:44.979Z,83.16
2023-10-09T06:58:49.301Z,83.23
2023-10-09T07:01:00.790Z,83.40
2023-10-09T07:03:13.004Z,83.70
2023-10-09T07:05:19.318Z,83.23
2023-10-09T07:07:22.408Z,84.39
2023-10-09T07:09:25.690Z,83.95
2023-10-09T07:11:43.003Z,83.92
2023-10-09T07:13:54.983Z,84.58
2023-10-09T07:16:16.336Z,83.98
2023-10-09T07:18:25.082Z,83.61
2023-10-09T07:20:47.098Z,84.78
2023-10-09T07:22:58.157Z,84.46
2023-10-09T07:25:16.327Z,84.28
2023-10-09T07:27:19.310Z,84.13
2023-10-09T07:29:25.489Z,84.72
2023-10-09T07:31:41.216Z,84.72
2023-10-09T07:33:58.680Z,84.17
2023-10-09T07:36:09.446Z,84.39
2023-10-09T07:38:46.640Z,84.66
2023-10-09T07:41:01.371Z,84.92
2023-10-09T07:43:07.154Z,84.19
2023-10-09T07:45:22.701Z,84.17
2023-10-09T07:47:45.870Z,84.89
2023-10-09T07:49:55.392Z,84.46
2023-10-09T07:52:00.620Z,84.37
2023-10-09T07:54:10.326Z,84.11
2023-10-09T07:56:22.336Z,84.79
2023-10-09T07:58:26.638Z,84.22
2023-10-09T08:00:52.142Z,85.24
2023-10-09T08:03:02.202Z,85.50
2023-10-09T08:05:08.686Z,85.23
2023-10-09T08:08:02.345Z,84.60
2023-10-09T08:10:12.952Z,84.83
2023-10-09T08:12:17.690Z,85.59
2023-10-09T08:14:36.086Z,85.04
2023-10-09T08:16:38.669Z,85.42
2023-10-09T08:18:46.548Z,85.70
2023-10-09T08:20:58.238Z,85.89
2023-10-09T08:23:00.834Z,85.58
2023-10-09T08:25:04.391Z,85.88
2023-10-09T08:27:30.896Z,85.47
2023-10-09T08:29:36.408Z,85.76
2023-10-09T08:31:48.487Z,85.07
2023-10-09T08:36:09.986Z,85.50
2023-10-09T08:38:12.889Z,84.82
2023-10-09T08:40:22.127Z,86.20
2023-10-09T08:42:27.385Z,85.02
2023-10-09T08:44:35.366Z,85.34
2023-10-09T08:46:39.891Z,85.41
2023-10-09T08:48:43.296Z,84.74
2023-10-09T08:50:48.685Z,85.19
2023-10-09T08:52:53.091Z,85.44
2023-10-09T08:54:56.017Z,85.50
2023-10-09T08:57:00.053Z,85.61
2023-10-09T08:59:03.796Z,85.42
2023-10-09T09:01:06.870Z,84.54
2023-10-09T09:03:09.917Z,85.37
2023-10-09T09:05:22.477Z,85.43
2023-10-09T09:07:33.348Z,85.69
2023-10-09T09:09:37.138Z,85.22
2023-10-09T09:11:50.523Z,85.52
2023-10-09T09:14:08.950Z,85.59
2023-10-09T09:16:32.959Z,85.64
2023-10-09T09:18:53.816Z,85.31
2023-10-09T09:20:58.286Z,86.16
2023-10-09T09:23:03.790Z,85.63
2023-10-09T09:25:11.879Z,85.30
2023-10-09T09:27:16.999Z,86.16
2023-10-09T09:29:21.711Z,85.64
2023-10-09T09:31:24.802Z,85.58
2023-10-09T09:33:44.436Z,86.41
2023-10-09T09:36:04.168Z,86.26
2023-10-09T09:38:08.965Z,86.91
2023-10-09T09:40:35.310Z,86.82
2023-10-09T09:42:42.551Z,86.94
2023-10-09T09:44:50.285Z,87.41
2023-10-09T09:46:56.805Z,86.60
2023-10-09T09:49:03.514Z,86.23
2023-10-09T09:51:10.144Z,85.80
2023-10-09T09:53:21.312Z,86.02
2023-10-09T09:55:33.019Z,85.73
2023-10-09T09:57:41.009Z,85.82
2023-10-09T09:59:51.829Z,85.29
2023-10-09T10:01:58.909Z,85.76
2023-10-09T10:04:14.621Z,85.14
2023-10-09T10:06:21.771Z,84.94
2023-10-09T10:08:34.958Z,85.22
2023-10-09T10:10:39.268Z,84.47
2023-10-09T10:13:02.826Z,83.79
2023-10-09T10:15:18.335Z,83.81
2023-10-09T10:17:23.646Z,83.98
2023-10-09T10:19:26.829Z,84.21
2023-10-09T10:21:34.291Z,83.46
2023-10-09T10:23:38.398Z,83.33
2023-10-09T10:25:44.397Z,83.47
2023-10-09T10:28:40.883Z,84.20
2023-10-09T10:30:53.803Z,83.39
2023-10-09T10:32:59.871Z,83.56
2023-10-09T10:35:08.183Z,83.96
2023-10-09T10:37:13.489Z,84.09
2023-10-09T10:39:44.962Z,84.14
2023-10-09T10:42:01.043Z,84.29
2023-10-09T10:44:35.538Z,84.31
2023-10-09T10:46:45.304Z,84.72
2023-10-09T10:48:50.705Z,85.35
2023-10-09T10:50:59.710Z,84.97
2023-10-09T10:53:17.536Z,84.04
2023-10-09T10:55:32.458Z,84.54
2023-10-09T10:58:07.377Z,84.73
2023-10-09T11:00:36.774Z,84.82
2023-10-09T11:02:42.408Z,84.58
2023-10-09T11:04:55.198Z,84.03
2023-10-09T11:07:08.246Z,84.55
2023-10-09T11:09:23.325Z,84.45
2023-10-09T11:11:33.647Z,84.10
2023-10-09T11:13:38.361Z,84.94
2023-10-09T11:15:48.138Z,84.18
2023-10-09T11:18:00.649Z,83.99
2023-10-09T11:20:24.218Z,83.71
2023-10-09T11:22:29.982Z,83.57
2023-10-09T11:24:36.654Z,82.96
2023-10-09T11:26:41.957Z,83.36
2023-10-09T11:28:50.480Z,83.24
2023-10-09T11:30:56.966Z,83.69
2023-10-09T11:33:07.787Z,84.15
2023-10-09T11:35:19.364Z,83.86
2023-10-09T11:37:32.657Z,84.36
2023-10-09T11:39:36.976Z,83.94
2023-10-09T11:41:46.052Z,83.20
2023-10-09T11:43:53.377Z,83.27
2023-10-09T11:46:12.827Z,82.59
2023-10-09T11:48:35.366Z,83.51
2023-10-09T11:51:04.011Z,83.98
2023-10-09T11:53:11.057Z,83.06
2023-10-09T11:55:18.487Z,83.35
2023-10-09T11:57:30.305Z,83.33
2023-10-09T11:59:43.838Z,83.31
2023-10-09T12:01:54.659Z,83.30
2023-10-09T12:03:57.626Z,83.27
2023-10-09T12:06:13.619Z,83.70
2023-10-09T12:08:18.233Z,83.39
2023-10-09T12:10:26.269Z,83.63
2023-10-09T12:12:30.010Z,83.56
2023-10-09T12:14:35.169Z,83.22
2023-10-09T12:16:42.157Z,82.71
2023-10-09T12:18:51.760Z,83.16
2023-10-09T12:20:56.852Z,82.93
2023-10-09T12:23:02.869Z,83.11
2023-10-09T12:25:10.938Z,82.35
2023-10-09T12:27:14.213Z,83.22
2023-10-09T12:29:17.172Z,83.54
2023-10-09T12:31:25.890Z,83.65
2023-10-09T12:33:31.309Z,82.62
2023-10-09T12:35:42.165Z,83.04
2023-10-09T12:37:45.374Z,83.22
2023-10-09T12:39:49.212Z,84.06
2023-10-09T12:41:55.207Z,83.05
2023-10-09T12:44:01.682Z,82.78
2023-10-09T12:46:10.266Z,82.97
2023-10-09T12:48:14.485Z,82.95
2023-10-09T12:50:17.361Z,83.19
2023-10-09T12:52:21.569Z,83.12
2023-10-09T12:54:31.894Z,83.19
2023-10-09T12:56:39.685Z,83.27
2023-10-09T12:59:01.534Z,82.89
2023-10-09T13:01:14.315Z,82.92
2023-10-09T13:03:19.196Z,82.39
2023-10-09T13:05:27.719Z,82.48
2023-10-09T13:07:30.331Z,82.90
2023-10-09T13:09:45.893Z,83.63
2023-10-09T13:11:50.292Z,83.35
2023-10-09T13:13:53.473Z,83.53
2023-10-09T13:15:56.783Z,83.65
2023-10-09T13:17:59.542Z,83.18
2023-10-09T13:20:03.015Z,82.75
2023-10-09T13:22:14.929Z,82.83
2023-10-09T13:24:17.626Z,82.61
2023-10-09T13:26:32.958Z,83.21
2023-10-09T13:28:39.372Z,82.76
2023-10-09T13:30:50.963Z,81.76
2023-10-09T13:32:54.242Z,82.59
2023-10-09T13:34:57.330Z,82.50
2023-10-09T13:37:10.852Z,82.57
2023-10-09T13:39:28.627Z,82.77
2023-10-09T13:41:31.232Z,82.44
2023-10-09T13:43:34.574Z,82.64
2023-10-09T13:45:42.511Z,82.56
2023-10-09T13:47:47.981Z,82.52
2023-10-09T13:49:55.285Z,82.55
2023-10-09T13:52:04.553Z,82.65
2023-10-09T13:54:09.104Z,82.25
2023-10-09T13:56:16.888Z,81.94
2023-10-09T13:58:25.497Z,81.88
2023-10-09T14:00:35.854Z,82.20
2023-10-09T14:02:39.692Z,82.15
2023-10-09T14:04:42.288Z,82.46
2023-10-09T14:06:46.595Z,82.32
2023-10-09T14:08:49.630Z,81.99
2023-10-09T14:10:52.335Z,81.61
2023-10-09T14:12:57.463Z,82.18
2023-10-09T14:15:02.223Z,81.88
2023-10-09T14:17:13.323Z,81.95
2023-10-09T14:19:16.246Z,81.95
2023-10-09T14:21:19.936Z,81.84
2023-10-09T14:23:22.668Z,81.82
2023-10-09T14:25:25.543Z,82.07
2023-10-09T14:27:31.551Z,81.32
2023-10-09T14:29:34.085Z,81.55
2023-10-09T14:31:40.512Z,82.14
2023-10-09T14:33:44.906Z,81.87
2023-10-09T14:35:48.012Z,81.69
2023-10-09T14:37:51.144Z,81.42
2023-10-09T14:39:54.633Z,81.45
2023-10-09T14:41:59.129Z,81.36
2023-10-09T14:44:02.837Z,81.44
2023-10-09T14:46:12.259Z,81.58
2023-10-09T14:48:16.405Z,81.56
2023-10-09T14:50:23.882Z,81.98
2023-10-09T14:52:29.061Z,81.11
2023-10-09T14:54:31.765Z,81.95
2023-10-09T14:56:38.316Z,81.75
2023-10-09T14:58:41.617Z,81.96
2023-10-09T15:00:48.341Z,81.56
2023-10-09T15:02:54.706Z,81.57
2023-10-09T15:04:58.862Z,81.64
2023-10-09T15:07:03.210Z,81.93
2023-10-09T15:09:23.270Z,81.98
2023-10-09T15:11:27.887Z,81.90
2023-10-09T15:13:32.436Z,81.72
2023-10-09T15:15:35.267Z,81.59
2023-10-09T15:17:38.318Z,81.20
2023-10-09T15:19:41.340Z,81.08
2023-10-09T15:21:47.702Z,81.07
2023-10-09T15:23:52.945Z,81.43
2023-10-09T15:25:56.384Z,81.40
2023-10-09T15:27:59.601Z,81.25
2023-10-09T15:30:02.402Z,81.73
2023-10-09T15:32:15.966Z,81.57
2023-10-09T15:34:20.214Z,81.77
2023-10-09T15:36:24.745Z,81.55
2023-10-09T15:38:27.701Z,81.81
2023-10-09T15:40:37.236Z,81.54
2023-10-09T15:42:40.007Z,82.21
2023-10-09T15:44:43.633Z,81.75
2023-10-09T15:46:49.322Z,81.81
2023-10-09T15:48:54.350Z,81.20
2023-10-09T15:50:57.105Z,81.39
2023-10-09T15:53:00.310Z,81.25
2023-10-09T15:55:03.574Z,81.34
2023-10-09T15:57:13.077Z,81.47
2023-10-09T15:59:18.486Z,82.01
2023-10-09T16:01:21.595Z,81.38
2023-10-09T16:03:26.155Z,81.02
2023-10-09T16:05:30.483Z,81.21
2023-10-09T16:07:33.476Z,80.85
2023-10-09T16:09:40.763Z,81.13
2023-10-09T16:11:46.274Z,80.88
2023-10-09T16:13:48.969Z,80.84
2023-10-09T16:15:51.912Z,80.96
2023-10-09T16:18:05.371Z,81.14
2023-10-09T16:20:15.714Z,80.73
2023-10-09T16:22:19.526Z,80.91
2023-10-09T16:24:22.192Z,81.23
2023-10-09T16:26:25.992Z,80.85
2023-10-09T16:28:29.969Z,80.92
2023-10-09T16:30:32.573Z,80.62
2023-10-09T16:32:35.632Z,81.08
2023-10-09T16:34:40.700Z,80.77
2023-10-09T16:36:43.610Z,81.05
2023-10-09T16:38:48.201Z,80.87
2023-10-09T16:40:56.268Z,80.52
2023-10-09T16:43:02.928Z,81.59
2023-10-09T16:45:10.529Z,81.20
2023-10-09T16:47:13.365Z,81.47
2023-10-09T16:49:16.108Z,81.27
2023-10-09T16:51:23.756Z,81.03
2023-10-09T16:53:27.276Z,80.75
2023-10-09T16:55:32.130Z,81.52
2023-10-09T16:57:36.364Z,81.26
2023-10-09T16:59:40.293Z,81.15
2023-10-09T17:01:46.555Z,80.54
2023-10-09T17:03:56.599Z,81.37
2023-10-09T17:06:00.116Z,81.36
2023-10-09T17:08:11.505Z,80.23
2023-10-09T17:10:17.508Z,80.61
2023-10-09T17:12:20.373Z,81.02
2023-10-09T17:14:28.064Z,80.50
2023-10-09T17:16:32.653Z,80.13
2023-10-09T17:18:36.161Z,80.01
2023-10-09T17:20:50.291Z,79.99
2023-10-09T17:22:53.310Z,80.12
2023-10-09T17:24:56.179Z,79.93
2023-10-09T17:26:59.468Z,80.38
2023-10-09T17:29:02.740Z,80.39
2023-10-09T17:31:06.186Z,80.91
2023-10-09T17:33:09.618Z,80.00
2023-10-09T17:35:14.213Z,80.44
2023-10-09T17:37:17.010Z,79.73
2023-10-09T17:39:27.786Z,80.16
2023-10-09T17:41:32.236Z,80.52
2023-10-09T17:43:34.755Z,80.64
2023-10-09T17:45:42.936Z,80.22
2023-10-09T17:47:47.015Z,80.06
2023-10-09T17:49:50.340Z,79.69
2023-10-09T17:51:55.026Z,79.62
2023-10-09T17:53:59.216Z,79.72
2023-10-09T17:56:02.132Z,80.21
2023-10-09T17:58:08.567Z,80.01
2023-10-09T18:00:23.939Z,80.31
2023-10-09T18:02:29.822Z,79.90
2023-10-09T18:04:36.992Z,79.91
2023-10-09T18:06:41.366Z,79.67
2023-10-09T18:08:44.331Z,79.85
2023-10-09T18:10:47.143Z,79.76
2023-10-09T18:12:51.334Z,79.58
2023-10-09T18:15:01.256Z,79.89
2023-10-09T18:17:04.568Z,80.07
2023-10-09T18:19:08.893Z,79.76
2023-10-09T18:21:12.304Z,80.17
2023-10-09T18:23:15.328Z,79.58
2023-10-09T18:25:20.367Z,80.22
2023-10-09T18:27:24.257Z,79.89
2023-10-09T18:29:27.316Z,79.64
2023-10-09T18:31:30.744Z,80.05
2023-10-09T18:33:34.734Z,80.21
2023-10-09T18:35:40.003Z,80.06
2023-10-09T18:37:43.183Z,80.25
2023-10-09T18:39:48.442Z,80.37
2023-10-09T18:41:55.755Z,80.61
2023-10-09T18:44:01.356Z,79.49
2023-10-09T18:46:11.112Z,80.11
2023-10-09T18:48:14.137Z,79.65
2023-10-09T18:50:18.161Z,79.65
2023-10-09T18:52:21.974Z,80.38
2023-10-09T18:54:25.781Z,80.50
2023-10-09T18:56:30.023Z,80.16
2023-10-09T18:58:33.421Z,80.41
2023-10-09T19:00:42.862Z,80.75
2023-10-09T19:02:45.678Z,80.40
2023-10-09T19:04:49.034Z,80.20
2023-10-09T19:06:55.452Z,80.01
2023-10-09T19:09:00.169Z,79.91
2023-10-09T19:11:10.962Z,80.50
2023-10-09T19:13:15.831Z,80.58
2023-10-09T19:15:20.300Z,80.31
2023-10-09T19:17:23.314Z,79.59
2023-10-09T19:19:26.926Z,80.04
2023-10-09T19:21:31.077Z,80.12
2023-10-09T19:23:34.881Z,79.96
2023-10-09T19:25:38.248Z,79.55
2023-10-09T19:27:40.843Z,80.25
2023-10-09T19:29:47.384Z,79.79
2023-10-09T19:31:52.481Z,80.23
2023-10-09T19:33:55.966Z,80.35
2023-10-09T19:36:13.419Z,80.63
2023-10-09T19:38:17.870Z,80.01
2023-10-09T19:40:23.208Z,80.24
2023-10-09T19:42:26.517Z,79.93
2023-10-09T19:44:30.327Z,80.03
2023-10-09T19:46:34.968Z,79.99
2023-10-09T19:48:38.022Z,79.97
2023-10-09T19:50:41.222Z,80.25
2023-10-09T19:52:52.137Z,79.75
2023-10-09T19:54:57.846Z,80.09
2023-10-09T19:57:00.767Z,79.63
2023-10-09T19:59:03.544Z,79.65
2023-10-09T20:01:09.331Z,79.27
2023-10-09T20:03:12.976Z,79.88
2023-10-09T20:05:17.386Z,80.13
2023-10-09T20:07:20.889Z,79.48
2023-10-09T20:09:23.739Z,79.80
2023-10-09T20:11:26.893Z,80.03
2023-10-09T20:13:29.698Z,79.32
2023-10-09T20:15:35.344Z,79.91
2023-10-09T20:17:38.634Z,79.85
2023-10-09T20:19:41.753Z,80.06
2023-10-09T20:21:45.110Z,80.14
2023-10-09T20:23:49.992Z,80.59
2023-10-09T20:26:06.803Z,80.36
2023-10-09T20:28:12.352Z,80.46
2023-10-09T20:30:16.286Z,79.77
2023-10-09T20:32:21.283Z,80.22
2023-10-09T20:34:26.477Z,79.95
2023-10-09T20:36:30.110Z,79.67
2023-10-09T20:38:32.757Z,79.76
2023-10-09T20:40:36.859Z,80.20
2023-10-09T20:42:40.205Z,80.62
2023-10-09T20:44:44.215Z,80.41
2023-10-09T20:46:49.927Z,80.37
2023-10-09T20:48:52.816Z,80.52
2023-10-09T20:50:55.557Z,80.10
2023-10-09T20:52:59.024Z,80.29
2023-10-09T20:55:03.130Z,80.20
2023-10-09T20:57:06.145Z,80.08
2023-10-09T20:59:10.193Z,79.91
2023-10-09T21:01:16.751Z,80.12
2023-10-09T21:03:21.328Z,80.16
2023-10-09T21:05:26.845Z,80.57
2023-10-09T21:07:31.953Z,80.99
2023-10-09T21:09:36.453Z,79.99
2023-10-09T21:11:39.295Z,80.57
2023-10-09T21:13:42.143Z,80.45
2023-10-09T21:15:47.340Z,80.39
2023-10-09T21:17:53.826Z,81.17
2023-10-09T21:19:56.510Z,80.32
2023-10-09T21:21:59.267Z,80.62
2023-10-09T21:24:01.938Z,80.57
2023-10-09T21:26:05.244Z,80.71
2023-10-09T21:28:08.721Z,80.29
2023-10-09T21:30:12.755Z,80.21
2023-10-09T21:32:15.408Z,80.39
2023-10-09T21:34:18.317Z,80.29
2023-10-09T21:36:21.515Z,80.18
2023-10-09T21:38:26.225Z,80.33
2023-10-09T21:40:30.447Z,79.79
2023-10-09T21:42:33.955Z,81.02
2023-10-09T21:44:36.905Z,80.25
2023-10-09T21:46:39.314Z,79.87
2023-10-09T21:48:44.373Z,80.01
2023-10-09T21:50:47.069Z,80.04
2023-10-09T21:52:49.893Z,79.75
2023-10-09T21:54:53.253Z,79.80
2023-10-09T21:56:55.837Z,79.83
2023-10-09T21:58:58.462Z,79.77
2023-10-09T22:01:03.834Z,79.85
2023-10-09T22:03:12.764Z,80.20
2023-10-09T22:05:16.195Z,80.10
2023-10-09T22:07:31.404Z,80.10
2023-10-09T22:09:35.141Z,80.03
2023-10-09T22:11:37.964Z,80.22
2023-10-09T22:13:40.578Z,80.50
2023-10-09T22:15:47.100Z,80.22
2023-10-09T22:17:50.639Z,80.69
2023-10-09T22:19:55.282Z,80.48
2023-10-09T22:21:58.131Z,80.02
2023-10-09T22:24:00.575Z,80.18
2023-10-09T22:26:03.609Z,80.19
2023-10-09T22:28:10.652Z,80.28
2023-10-09T22:30:14.486Z,80.92
2023-10-09T22:32:18.635Z,80.54
2023-10-09T22:34:21.478Z,80.52
2023-10-09T22:36:37.958Z,80.75
2023-10-09T22:38:52.405Z,80.57
2023-10-09T22:40:55.305Z,81.05
2023-10-09T22:42:57.972Z,80.93
2023-10-09T22:45:00.849Z,81.01
2023-10-09T22:47:09.684Z,81.29
2023-10-09T22:49:16.270Z,80.88
2023-10-09T22:51:26.038Z,81.31
2023-10-09T22:53:39.717Z,81.11
2023-10-09T22:55:52.270Z,81.50
2023-10-09T22:57:58.037Z,82.11
2023-10-09T23:00:02.002Z,82.14
2023-10-09T23:02:06.575Z,82.16
2023-10-09T23:04:15.665Z,81.45
2023-10-09T23:06:20.712Z,81.80
2023-10-09T23:08:23.803Z,81.73
2023-10-09T23:10:26.243Z,81.26
2023-10-09T23:12:36.553Z,81.96
2023-10-09T23:14:41.241Z,81.20
2023-10-09T23:16:50.508Z,80.87
2023-10-09T23:19:15.572Z,81.16
2023-10-09T23:21:22.706Z,81.55
2023-10-09T23:23:28.704Z,81.81
2023-10-09T23:25:35.047Z,81.46
2023-10-09T23:27:39.563Z,81.32
2023-10-09T23:29:53.210Z,81.58
2023-10-09T23:32:15.634Z,82.16
2023-10-09T23:34:21.528Z,81.91
2023-10-09T23:36:28.459Z,81.71
2023-10-09T23:38:57.408Z,81.58
2023-10-09T23:41:05.679Z,81.67
2023-10-09T23:43:32.330Z,81.79
2023-10-09T23:45:35.194Z,82.18
2023-10-09T23:47:42.753Z,81.71
2023-10-09T23:49:45.722Z,81.52
2023-10-09T23:51:56.009Z,81.62
2023-10-09T23:54:02.998Z,81.78
2023-10-09T23:56:11.941Z,81.90
2023-10-09T23:58:19.531Z,81.66
